sensor_id;sensor_type;location;lat;lon;timestamp;P1;durP1;ratioP1;P2;durP2;ratioP2
13834;SDS011;6988;52.614;13.500;2023-02-17T00:03:13;29.87;;;19.53;;
13834;SDS011;6988;52.614;13.500;2023-02-17T00:08:05;27.97;;;20.20;;
13834;SDS011;6988;52.614;13.500;2023-02-17T00:12:57;28.73;;;18.83;;
13834;SDS011;6988;52.614;13.500;2023-02-17T00:17:49;31.43;;;21.20;;
13834;SDS011;6988;52.614;13.500;2023-02-17T00:22:42;33.00;;;22.17;;
13834;SDS011;6988;52.614;13.500;2023-02-17T00:27:34;32.33;;;19.73;;
13834;SDS011;6988;52.614;13.500;2023-02-17T00:32:26;35.83;;;24.10;;
13834;SDS011;6988;52.614;13.500;2023-02-17T00:37:18;35.40;;;21.90;;
13834;SDS011;6988;52.614;13.500;2023-02-17T00:42:11;35.93;;;24.57;;
13834;SDS011;6988;52.614;13.500;2023-02-17T00:47:03;38.77;;;24.30;;
13834;SDS011;6988;52.614;13.500;2023-02-17T00:51:57;37.20;;;24.37;;
13834;SDS011;6988;52.614;13.500;2023-02-17T00:56:50;35.27;;;23.73;;
13834;SDS011;6988;52.614;13.500;2023-02-17T01:01:44;40.97;;;25.50;;
13834;SDS011;6988;52.614;13.500;2023-02-17T01:06:36;36.73;;;24.20;;
13834;SDS011;6988;52.614;13.500;2023-02-17T01:11:31;37.50;;;24.97;;
13834;SDS011;6988;52.614;13.500;2023-02-17T01:16:25;37.03;;;24.57;;
13834;SDS011;6988;52.614;13.500;2023-02-17T01:21:24;34.97;;;24.43;;
13834;SDS011;6988;52.614;13.500;2023-02-17T01:26:20;37.30;;;24.67;;
13834;SDS011;6988;52.614;13.500;2023-02-17T01:31:16;37.73;;;24.97;;
13834;SDS011;6988;52.614;13.500;2023-02-17T01:36:10;36.80;;;24.30;;
13834;SDS011;6988;52.614;13.500;2023-02-17T01:41:07;37.43;;;24.93;;
13834;SDS011;6988;52.614;13.500;2023-02-17T01:46:02;36.90;;;24.90;;
13834;SDS011;6988;52.614;13.500;2023-02-17T01:50:58;39.17;;;23.27;;
13834;SDS011;6988;52.614;13.500;2023-02-17T01:55:57;39.87;;;26.07;;
13834;SDS011;6988;52.614;13.500;2023-02-17T02:00:51;36.23;;;23.77;;
13834;SDS011;6988;52.614;13.500;2023-02-17T02:05:48;38.13;;;24.93;;
13834;SDS011;6988;52.614;13.500;2023-02-17T02:10:40;37.10;;;25.00;;
13834;SDS011;6988;52.614;13.500;2023-02-17T02:15:33;42.27;;;26.30;;
13834;SDS011;6988;52.614;13.500;2023-02-17T02:31:55;43.30;;;26.87;;
13834;SDS011;6988;52.614;13.500;2023-02-17T02:37:16;43.07;;;28.07;;
13834;SDS011;6988;52.614;13.500;2023-02-17T02:42:16;46.30;;;28.80;;
13834;SDS011;6988;52.614;13.500;2023-02-17T02:52:39;47.87;;;28.70;;
13834;SDS011;6988;52.614;13.500;2023-02-17T02:57:48;44.50;;;28.37;;
13834;SDS011;6988;52.614;13.500;2023-02-17T03:02:51;47.10;;;29.67;;
13834;SDS011;6988;52.614;13.500;2023-02-17T03:07:52;46.53;;;30.37;;
13834;SDS011;6988;52.614;13.500;2023-02-17T03:12:50;49.30;;;29.90;;
13834;SDS011;6988;52.614;13.500;2023-02-17T03:17:43;46.10;;;28.37;;
13834;SDS011;6988;52.614;13.500;2023-02-17T03:22:35;50.63;;;31.50;;
13834;SDS011;6988;52.614;13.500;2023-02-17T03:27:32;47.47;;;30.97;;
13834;SDS011;6988;52.614;13.500;2023-02-17T03:32:24;54.03;;;32.07;;
13834;SDS011;6988;52.614;13.500;2023-02-17T03:37:19;47.50;;;29.80;;
13834;SDS011;6988;52.614;13.500;2023-02-17T03:42:10;54.17;;;31.63;;
13834;SDS011;6988;52.614;13.500;2023-02-17T03:47:04;53.00;;;32.70;;
13834;SDS011;6988;52.614;13.500;2023-02-17T03:51:57;55.47;;;31.83;;
13834;SDS011;6988;52.614;13.500;2023-02-17T03:56:49;51.07;;;33.10;;
13834;SDS011;6988;52.614;13.500;2023-02-17T04:01:41;55.23;;;33.97;;
13834;SDS011;6988;52.614;13.500;2023-02-17T04:06:34;52.87;;;33.67;;
13834;SDS011;6988;52.614;13.500;2023-02-17T04:11:26;55.77;;;33.87;;
13834;SDS011;6988;52.614;13.500;2023-02-17T04:16:18;56.87;;;33.17;;
13834;SDS011;6988;52.614;13.500;2023-02-17T04:21:10;56.47;;;34.43;;
13834;SDS011;6988;52.614;13.500;2023-02-17T04:26:04;50.97;;;33.60;;
13834;SDS011;6988;52.614;13.500;2023-02-17T04:30:58;53.83;;;33.43;;
13834;SDS011;6988;52.614;13.500;2023-02-17T04:35:50;53.20;;;33.80;;
13834;SDS011;6988;52.614;13.500;2023-02-17T04:40:42;56.03;;;34.90;;
13834;SDS011;6988;52.614;13.500;2023-02-17T04:45:36;59.67;;;34.93;;
13834;SDS011;6988;52.614;13.500;2023-02-17T04:50:29;51.13;;;33.60;;
13834;SDS011;6988;52.614;13.500;2023-02-17T04:55:21;47.93;;;31.33;;
13834;SDS011;6988;52.614;13.500;2023-02-17T05:00:13;48.13;;;31.53;;
13834;SDS011;6988;52.614;13.500;2023-02-17T05:05:07;45.70;;;30.53;;
13834;SDS011;6988;52.614;13.500;2023-02-17T05:09:59;44.50;;;30.30;;
13834;SDS011;6988;52.614;13.500;2023-02-17T05:14:51;44.70;;;29.70;;
13834;SDS011;6988;52.614;13.500;2023-02-17T05:19:43;42.47;;;27.43;;
13834;SDS011;6988;52.614;13.500;2023-02-17T05:24:36;43.07;;;29.40;;
13834;SDS011;6988;52.614;13.500;2023-02-17T05:29:28;45.13;;;29.27;;
13834;SDS011;6988;52.614;13.500;2023-02-17T05:34:20;43.13;;;28.27;;
13834;SDS011;6988;52.614;13.500;2023-02-17T05:39:12;44.47;;;28.17;;
13834;SDS011;6988;52.614;13.500;2023-02-17T05:44:05;42.77;;;27.80;;
13834;SDS011;6988;52.614;13.500;2023-02-17T05:48:57;46.80;;;28.73;;
13834;SDS011;6988;52.614;13.500;2023-02-17T05:53:49;44.20;;;29.03;;
13834;SDS011;6988;52.614;13.500;2023-02-17T05:58:41;46.07;;;29.20;;
13834;SDS011;6988;52.614;13.500;2023-02-17T06:03:34;47.53;;;28.80;;
13834;SDS011;6988;52.614;13.500;2023-02-17T06:08:26;44.50;;;29.50;;
13834;SDS011;6988;52.614;13.500;2023-02-17T06:13:19;51.53;;;31.27;;
13834;SDS011;6988;52.614;13.500;2023-02-17T06:18:11;50.70;;;32.17;;
13834;SDS011;6988;52.614;13.500;2023-02-17T06:23:05;50.47;;;31.30;;
13834;SDS011;6988;52.614;13.500;2023-02-17T06:27:57;50.07;;;31.17;;
13834;SDS011;6988;52.614;13.500;2023-02-17T06:32:49;46.10;;;30.57;;
13834;SDS011;6988;52.614;13.500;2023-02-17T06:37:41;44.23;;;28.70;;
13834;SDS011;6988;52.614;13.500;2023-02-17T06:42:35;38.93;;;23.97;;
13834;SDS011;6988;52.614;13.500;2023-02-17T06:47:27;46.37;;;29.10;;
13834;SDS011;6988;52.614;13.500;2023-02-17T06:52:19;44.13;;;28.73;;
13834;SDS011;6988;52.614;13.500;2023-02-17T06:57:11;43.27;;;28.60;;
13834;SDS011;6988;52.614;13.500;2023-02-17T07:02:04;44.33;;;28.73;;
13834;SDS011;6988;52.614;13.500;2023-02-17T07:06:57;42.17;;;27.10;;
13834;SDS011;6988;52.614;13.500;2023-02-17T07:11:48;40.63;;;27.00;;
13834;SDS011;6988;52.614;13.500;2023-02-17T07:16:41;39.10;;;25.97;;
13834;SDS011;6988;52.614;13.500;2023-02-17T07:21:34;41.90;;;24.67;;
13834;SDS011;6988;52.614;13.500;2023-02-17T07:26:25;36.83;;;24.83;;
13834;SDS011;6988;52.614;13.500;2023-02-17T07:31:17;31.73;;;21.23;;
13834;SDS011;6988;52.614;13.500;2023-02-17T07:36:10;32.50;;;21.13;;
13834;SDS011;6988;52.614;13.500;2023-02-17T07:41:07;35.63;;;21.53;;
13834;SDS011;6988;52.614;13.500;2023-02-17T07:46:01;33.37;;;23.70;;
13834;SDS011;6988;52.614;13.500;2023-02-17T07:50:54;34.43;;;22.90;;
13834;SDS011;6988;52.614;13.500;2023-02-17T07:55:46;29.50;;;18.73;;
13834;SDS011;6988;52.614;13.500;2023-02-17T08:00:40;28.17;;;18.30;;
13834;SDS011;6988;52.614;13.500;2023-02-17T08:05:32;27.60;;;19.37;;
13834;SDS011;6988;52.614;13.500;2023-02-17T08:10:23;27.97;;;18.90;;
13834;SDS011;6988;52.614;13.500;2023-02-17T08:15:33;30.07;;;18.03;;
13834;SDS011;6988;52.614;13.500;2023-02-17T08:20:26;26.33;;;17.03;;
13834;SDS011;6988;52.614;13.500;2023-02-17T08:25:18;24.17;;;17.03;;
13834;SDS011;6988;52.614;13.500;2023-02-17T08:30:10;23.13;;;15.90;;
13834;SDS011;6988;52.614;13.500;2023-02-17T08:35:03;22.87;;;16.80;;
13834;SDS011;6988;52.614;13.500;2023-02-17T08:39:58;23.90;;;15.57;;
13834;SDS011;6988;52.614;13.500;2023-02-17T08:44:50;21.67;;;14.80;;
13834;SDS011;6988;52.614;13.500;2023-02-17T08:49:41;23.23;;;16.07;;
13834;SDS011;6988;52.614;13.500;2023-02-17T08:54:33;22.37;;;15.47;;
13834;SDS011;6988;52.614;13.500;2023-02-17T08:59:26;22.03;;;15.80;;
13834;SDS011;6988;52.614;13.500;2023-02-17T09:04:18;24.97;;;16.57;;
13834;SDS011;6988;52.614;13.500;2023-02-17T09:09:11;24.57;;;16.73;;
13834;SDS011;6988;52.614;13.500;2023-02-17T09:14:06;18.80;;;14.20;;
13834;SDS011;6988;52.614;13.500;2023-02-17T09:19:00;20.47;;;14.50;;
13834;SDS011;6988;52.614;13.500;2023-02-17T09:23:52;20.37;;;14.13;;
13834;SDS011;6988;52.614;13.500;2023-02-17T09:28:44;21.70;;;15.10;;
13834;SDS011;6988;52.614;13.500;2023-02-17T09:33:36;20.60;;;13.70;;
13834;SDS011;6988;52.614;13.500;2023-02-17T09:38:29;20.73;;;14.90;;
13834;SDS011;6988;52.614;13.500;2023-02-17T09:43:22;21.93;;;15.07;;
13834;SDS011;6988;52.614;13.500;2023-02-17T09:48:19;22.37;;;15.73;;
13834;SDS011;6988;52.614;13.500;2023-02-17T09:53:19;20.00;;;14.27;;
13834;SDS011;6988;52.614;13.500;2023-02-17T09:58:19;19.70;;;15.03;;
13834;SDS011;6988;52.614;13.500;2023-02-17T10:03:17;21.70;;;15.97;;
13834;SDS011;6988;52.614;13.500;2023-02-17T10:08:16;23.47;;;17.30;;
13834;SDS011;6988;52.614;13.500;2023-02-17T10:13:14;24.77;;;16.67;;
13834;SDS011;6988;52.614;13.500;2023-02-17T10:18:14;24.20;;;18.17;;
13834;SDS011;6988;52.614;13.500;2023-02-17T10:23:16;25.13;;;17.93;;
13834;SDS011;6988;52.614;13.500;2023-02-17T10:28:15;24.40;;;17.07;;
13834;SDS011;6988;52.614;13.500;2023-02-17T10:33:22;25.30;;;17.43;;
13834;SDS011;6988;52.614;13.500;2023-02-17T10:38:32;24.57;;;17.97;;
13834;SDS011;6988;52.614;13.500;2023-02-17T10:43:40;25.87;;;17.60;;
13834;SDS011;6988;52.614;13.500;2023-02-17T10:48:36;25.10;;;17.53;;
13834;SDS011;6988;52.614;13.500;2023-02-17T10:53:35;25.90;;;19.93;;
13834;SDS011;6988;52.614;13.500;2023-02-17T10:58:32;24.67;;;17.00;;
13834;SDS011;6988;52.614;13.500;2023-02-17T11:03:41;24.27;;;16.87;;
13834;SDS011;6988;52.614;13.500;2023-02-17T11:08:34;23.70;;;18.20;;
13834;SDS011;6988;52.614;13.500;2023-02-17T11:13:36;23.50;;;18.23;;
13834;SDS011;6988;52.614;13.500;2023-02-17T11:18:34;22.80;;;17.47;;
13834;SDS011;6988;52.614;13.500;2023-02-17T11:23:33;27.17;;;17.60;;
13834;SDS011;6988;52.614;13.500;2023-02-17T11:28:26;23.90;;;17.87;;
13834;SDS011;6988;52.614;13.500;2023-02-17T11:33:20;23.70;;;16.87;;
13834;SDS011;6988;52.614;13.500;2023-02-17T11:38:15;24.47;;;16.67;;
13834;SDS011;6988;52.614;13.500;2023-02-17T11:43:15;25.63;;;16.67;;
13834;SDS011;6988;52.614;13.500;2023-02-17T11:48:13;22.80;;;16.33;;
13834;SDS011;6988;52.614;13.500;2023-02-17T11:53:34;22.43;;;15.27;;
13834;SDS011;6988;52.614;13.500;2023-02-17T11:58:49;20.40;;;15.80;;
13834;SDS011;6988;52.614;13.500;2023-02-17T12:04:09;20.53;;;15.00;;
13834;SDS011;6988;52.614;13.500;2023-02-17T12:09:16;22.13;;;15.37;;
13834;SDS011;6988;52.614;13.500;2023-02-17T12:14:29;22.67;;;14.07;;
13834;SDS011;6988;52.614;13.500;2023-02-17T12:19:50;22.00;;;13.53;;
13834;SDS011;6988;52.614;13.500;2023-02-17T12:25:03;18.93;;;13.80;;
13834;SDS011;6988;52.614;13.500;2023-02-17T12:30:24;20.60;;;13.90;;
13834;SDS011;6988;52.614;13.500;2023-02-17T12:35:26;16.50;;;12.27;;
13834;SDS011;6988;52.614;13.500;2023-02-17T12:40:31;15.27;;;12.43;;
13834;SDS011;6988;52.614;13.500;2023-02-17T12:45:32;17.33;;;12.30;;
13834;SDS011;6988;52.614;13.500;2023-02-17T12:50:31;15.50;;;11.33;;
13834;SDS011;6988;52.614;13.500;2023-02-17T12:55:29;15.47;;;11.43;;
13834;SDS011;6988;52.614;13.500;2023-02-17T13:00:32;13.67;;;10.87;;
13834;SDS011;6988;52.614;13.500;2023-02-17T13:05:31;11.90;;;9.80;;
13834;SDS011;6988;52.614;13.500;2023-02-17T13:10:33;11.63;;;9.37;;
13834;SDS011;6988;52.614;13.500;2023-02-17T13:15:29;10.00;;;8.70;;
13834;SDS011;6988;52.614;13.500;2023-02-17T13:20:28;12.77;;;8.07;;
13834;SDS011;6988;52.614;13.500;2023-02-17T13:25:35;10.93;;;8.10;;
13834;SDS011;6988;52.614;13.500;2023-02-17T13:30:28;9.97;;;7.93;;
13834;SDS011;6988;52.614;13.500;2023-02-17T13:35:30;8.97;;;7.40;;
13834;SDS011;6988;52.614;13.500;2023-02-17T13:40:35;10.07;;;7.93;;
13834;SDS011;6988;52.614;13.500;2023-02-17T13:45:31;9.23;;;7.30;;
13834;SDS011;6988;52.614;13.500;2023-02-17T13:50:32;9.87;;;6.90;;
13834;SDS011;6988;52.614;13.500;2023-02-17T13:55:26;9.93;;;7.07;;
13834;SDS011;6988;52.614;13.500;2023-02-17T14:00:19;8.87;;;7.20;;
13834;SDS011;6988;52.614;13.500;2023-02-17T14:05:17;8.67;;;7.00;;
13834;SDS011;6988;52.614;13.500;2023-02-17T14:10:19;8.83;;;7.30;;
13834;SDS011;6988;52.614;13.500;2023-02-17T14:15:15;8.97;;;7.70;;
13834;SDS011;6988;52.614;13.500;2023-02-17T14:20:24;9.63;;;7.60;;
13834;SDS011;6988;52.614;13.500;2023-02-17T14:25:25;9.40;;;7.87;;
13834;SDS011;6988;52.614;13.500;2023-02-17T14:30:26;11.73;;;8.27;;
13834;SDS011;6988;52.614;13.500;2023-02-17T14:35:22;10.10;;;8.10;;
13834;SDS011;6988;52.614;13.500;2023-02-17T14:40:16;11.60;;;8.97;;
13834;SDS011;6988;52.614;13.500;2023-02-17T14:45:11;10.03;;;8.87;;
13834;SDS011;6988;52.614;13.500;2023-02-17T14:50:04;12.33;;;9.70;;
13834;SDS011;6988;52.614;13.500;2023-02-17T14:54:58;12.40;;;9.67;;
13834;SDS011;6988;52.614;13.500;2023-02-17T14:59:50;11.83;;;10.37;;
13834;SDS011;6988;52.614;13.500;2023-02-17T15:04:46;13.50;;;10.90;;
13834;SDS011;6988;52.614;13.500;2023-02-17T15:09:38;13.47;;;11.17;;
13834;SDS011;6988;52.614;13.500;2023-02-17T15:14:32;13.27;;;10.97;;
13834;SDS011;6988;52.614;13.500;2023-02-17T15:19:24;14.60;;;11.67;;
13834;SDS011;6988;52.614;13.500;2023-02-17T15:24:16;13.70;;;11.10;;
13834;SDS011;6988;52.614;13.500;2023-02-17T15:29:13;15.93;;;12.93;;
13834;SDS011;6988;52.614;13.500;2023-02-17T15:34:11;13.77;;;11.80;;
13834;SDS011;6988;52.614;13.500;2023-02-17T15:39:07;16.77;;;12.07;;
13834;SDS011;6988;52.614;13.500;2023-02-17T15:44:00;15.77;;;13.17;;
13834;SDS011;6988;52.614;13.500;2023-02-17T15:48:52;16.27;;;12.37;;
13834;SDS011;6988;52.614;13.500;2023-02-17T15:53:45;14.63;;;11.07;;
13834;SDS011;6988;52.614;13.500;2023-02-17T15:58:38;14.63;;;11.07;;
13834;SDS011;6988;52.614;13.500;2023-02-17T16:03:30;15.27;;;12.00;;
13834;SDS011;6988;52.614;13.500;2023-02-17T16:08:22;15.43;;;11.70;;
13834;SDS011;6988;52.614;13.500;2023-02-17T16:13:15;15.63;;;11.33;;
13834;SDS011;6988;52.614;13.500;2023-02-17T16:18:09;14.27;;;10.37;;
13834;SDS011;6988;52.614;13.500;2023-02-17T16:23:11;13.27;;;9.70;;
13834;SDS011;6988;52.614;13.500;2023-02-17T16:28:04;10.80;;;8.70;;
13834;SDS011;6988;52.614;13.500;2023-02-17T16:33:08;10.10;;;8.20;;
13834;SDS011;6988;52.614;13.500;2023-02-17T16:38:01;11.47;;;8.97;;
13834;SDS011;6988;52.614;13.500;2023-02-17T16:42:57;9.73;;;7.90;;
13834;SDS011;6988;52.614;13.500;2023-02-17T16:47:51;9.53;;;7.90;;
13834;SDS011;6988;52.614;13.500;2023-02-17T16:52:47;8.10;;;7.03;;
13834;SDS011;6988;52.614;13.500;2023-02-17T16:57:39;8.63;;;7.43;;
13834;SDS011;6988;52.614;13.500;2023-02-17T17:02:33;7.57;;;6.70;;
13834;SDS011;6988;52.614;13.500;2023-02-17T17:07:25;9.83;;;6.70;;
13834;SDS011;6988;52.614;13.500;2023-02-17T17:12:22;8.67;;;6.10;;
13834;SDS011;6988;52.614;13.500;2023-02-17T17:17:13;7.93;;;5.30;;
13834;SDS011;6988;52.614;13.500;2023-02-17T17:22:05;6.17;;;5.00;;
13834;SDS011;6988;52.614;13.500;2023-02-17T17:26:57;6.77;;;5.03;;
13834;SDS011;6988;52.614;13.500;2023-02-17T17:31:50;7.13;;;4.60;;
13834;SDS011;6988;52.614;13.500;2023-02-17T17:36:43;6.07;;;4.50;;
13834;SDS011;6988;52.614;13.500;2023-02-17T17:41:37;6.53;;;4.27;;
13834;SDS011;6988;52.614;13.500;2023-02-17T17:46:30;5.53;;;3.50;;
13834;SDS011;6988;52.614;13.500;2023-02-17T17:51:27;6.97;;;3.80;;
13834;SDS011;6988;52.614;13.500;2023-02-17T17:56:24;5.80;;;3.43;;
13834;SDS011;6988;52.614;13.500;2023-02-17T18:01:19;5.83;;;4.00;;
13834;SDS011;6988;52.614;13.500;2023-02-17T18:06:13;5.20;;;3.13;;
13834;SDS011;6988;52.614;13.500;2023-02-17T18:11:11;6.20;;;3.50;;
13834;SDS011;6988;52.614;13.500;2023-02-17T18:16:05;5.43;;;3.70;;
13834;SDS011;6988;52.614;13.500;2023-02-17T18:20:57;4.60;;;3.13;;
13834;SDS011;6988;52.614;13.500;2023-02-17T18:25:49;4.87;;;3.30;;
13834;SDS011;6988;52.614;13.500;2023-02-17T18:30:42;5.83;;;3.23;;
13834;SDS011;6988;52.614;13.500;2023-02-17T18:35:34;10.60;;;3.47;;
13834;SDS011;6988;52.614;13.500;2023-02-17T18:40:27;7.53;;;2.97;;
13834;SDS011;6988;52.614;13.500;2023-02-17T18:45:20;6.73;;;2.70;;
13834;SDS011;6988;52.614;13.500;2023-02-17T18:50:14;2.67;;;1.20;;
13834;SDS011;6988;52.614;13.500;2023-02-17T18:55:06;8.57;;;1.90;;
13834;SDS011;6988;52.614;13.500;2023-02-17T18:59:59;4.40;;;1.60;;
13834;SDS011;6988;52.614;13.500;2023-02-17T19:04:52;4.77;;;1.20;;
13834;SDS011;6988;52.614;13.500;2023-02-17T19:09:46;3.97;;;1.10;;
13834;SDS011;6988;52.614;13.500;2023-02-17T19:14:40;7.00;;;1.30;;
13834;SDS011;6988;52.614;13.500;2023-02-17T19:19:34;5.57;;;1.07;;
13834;SDS011;6988;52.614;13.500;2023-02-17T19:24:26;7.33;;;0.90;;
13834;SDS011;6988;52.614;13.500;2023-02-17T19:29:21;5.53;;;1.57;;
13834;SDS011;6988;52.614;13.500;2023-02-17T19:34:13;7.27;;;1.63;;
13834;SDS011;6988;52.614;13.500;2023-02-17T19:39:06;4.47;;;1.00;;
13834;SDS011;6988;52.614;13.500;2023-02-17T19:43:58;8.23;;;1.13;;
13834;SDS011;6988;52.614;13.500;2023-02-17T19:48:51;8.37;;;1.70;;
13834;SDS011;6988;52.614;13.500;2023-02-17T19:53:43;7.63;;;1.80;;
13834;SDS011;6988;52.614;13.500;2023-02-17T19:58:35;6.60;;;1.80;;
13834;SDS011;6988;52.614;13.500;2023-02-17T20:03:27;9.13;;;1.50;;
13834;SDS011;6988;52.614;13.500;2023-02-17T20:08:20;8.53;;;1.70;;
13834;SDS011;6988;52.614;13.500;2023-02-17T20:13:12;9.23;;;1.83;;
13834;SDS011;6988;52.614;13.500;2023-02-17T20:18:04;9.80;;;1.60;;
13834;SDS011;6988;52.614;13.500;2023-02-17T20:22:56;7.87;;;1.40;;
13834;SDS011;6988;52.614;13.500;2023-02-17T20:27:49;10.40;;;2.17;;
13834;SDS011;6988;52.614;13.500;2023-02-17T20:32:42;8.73;;;1.83;;
13834;SDS011;6988;52.614;13.500;2023-02-17T20:37:33;8.43;;;2.10;;
13834;SDS011;6988;52.614;13.500;2023-02-17T20:42:25;7.73;;;1.57;;
13834;SDS011;6988;52.614;13.500;2023-02-17T20:47:18;6.87;;;1.37;;
13834;SDS011;6988;52.614;13.500;2023-02-17T20:52:10;12.27;;;1.70;;
13834;SDS011;6988;52.614;13.500;2023-02-17T20:57:02;7.83;;;1.77;;
13834;SDS011;6988;52.614;13.500;2023-02-17T21:02:00;9.17;;;2.17;;
13834;SDS011;6988;52.614;13.500;2023-02-17T21:06:53;7.57;;;1.77;;
13834;SDS011;6988;52.614;13.500;2023-02-17T21:11:45;11.70;;;2.03;;
13834;SDS011;6988;52.614;13.500;2023-02-17T21:16:37;7.60;;;1.97;;
13834;SDS011;6988;52.614;13.500;2023-02-17T21:21:30;10.93;;;2.20;;
13834;SDS011;6988;52.614;13.500;2023-02-17T21:26:23;7.63;;;1.67;;
13834;SDS011;6988;52.614;13.500;2023-02-17T21:31:16;10.23;;;2.33;;
13834;SDS011;6988;52.614;13.500;2023-02-17T21:36:09;11.07;;;2.00;;
13834;SDS011;6988;52.614;13.500;2023-02-17T21:41:03;9.47;;;1.90;;
13834;SDS011;6988;52.614;13.500;2023-02-17T21:45:58;8.97;;;2.00;;
13834;SDS011;6988;52.614;13.500;2023-02-17T21:50:50;10.60;;;2.77;;
13834;SDS011;6988;52.614;13.500;2023-02-17T21:55:53;13.57;;;1.93;;
13834;SDS011;6988;52.614;13.500;2023-02-17T22:00:46;9.60;;;1.80;;
13834;SDS011;6988;52.614;13.500;2023-02-17T22:05:40;9.30;;;2.27;;
13834;SDS011;6988;52.614;13.500;2023-02-17T22:10:35;11.90;;;2.07;;
13834;SDS011;6988;52.614;13.500;2023-02-17T22:15:27;11.83;;;2.20;;
13834;SDS011;6988;52.614;13.500;2023-02-17T22:20:19;12.83;;;2.00;;
13834;SDS011;6988;52.614;13.500;2023-02-17T22:25:12;12.63;;;2.50;;
13834;SDS011;6988;52.614;13.500;2023-02-17T22:30:05;7.83;;;1.90;;
13834;SDS011;6988;52.614;13.500;2023-02-17T22:34:58;12.00;;;2.37;;
13834;SDS011;6988;52.614;13.500;2023-02-17T22:39:51;13.67;;;1.90;;
13834;SDS011;6988;52.614;13.500;2023-02-17T22:44:45;10.47;;;2.00;;
13834;SDS011;6988;52.614;13.500;2023-02-17T23:04:38;11.30;;;2.10;;
13834;SDS011;6988;52.614;13.500;2023-02-17T23:09:30;10.97;;;2.20;;
13834;SDS011;6988;52.614;13.500;2023-02-17T23:14:23;10.77;;;2.27;;
13834;SDS011;6988;52.614;13.500;2023-02-17T23:19:18;10.60;;;2.23;;
13834;SDS011;6988;52.614;13.500;2023-02-17T23:24:14;11.83;;;2.30;;
13834;SDS011;6988;52.614;13.500;2023-02-17T23:29:08;13.50;;;2.20;;
13834;SDS011;6988;52.614;13.500;2023-02-17T23:34:00;12.30;;;2.00;;
13834;SDS011;6988;52.614;13.500;2023-02-17T23:38:52;12.37;;;3.00;;
13834;SDS011;6988;52.614;13.500;2023-02-17T23:43:46;10.77;;;2.30;;
13834;SDS011;6988;52.614;13.500;2023-02-17T23:48:38;13.43;;;2.20;;
13834;SDS011;6988;52.614;13.500;2023-02-17T23:53:30;14.23;;;2.50;;
13834;SDS011;6988;52.614;13.500;2023-02-17T23:58:22;10.77;;;2.30;;
